sensor_id;sensor_type;location;lat;lon;timestamp;P1;durP1;ratioP1;P2;durP2;ratioP2
25331;SDS011;13284;52.748;13.452;2023-04-25T00:00:47;4.83;;;3.00;;
25331;SDS011;13284;52.748;13.452;2023-04-25T00:03:13;7.93;;;3.00;;
25331;SDS011;13284;52.748;13.452;2023-04-25T00:05:41;3.40;;;3.10;;
25331;SDS011;13284;52.748;13.452;2023-04-25T00:08:06;2.63;;;2.43;;
25331;SDS011;13284;52.748;13.452;2023-04-25T00:10:32;3.30;;;2.70;;
25331;SDS011;13284;52.748;13.452;2023-04-25T00:12:58;2.87;;;2.57;;
25331;SDS011;13284;52.748;13.452;2023-04-25T00:15:23;3.30;;;3.00;;
25331;SDS011;13284;52.748;13.452;2023-04-25T00:17:49;2.77;;;2.57;;
25331;SDS011;13284;52.748;13.452;2023-04-25T00:20:17;3.33;;;2.50;;
25331;SDS011;13284;52.748;13.452;2023-04-25T00:22:43;2.50;;;2.30;;
25331;SDS011;13284;52.748;13.452;2023-04-25T00:25:08;2.90;;;2.60;;
25331;SDS011;13284;52.748;13.452;2023-04-25T00:27:34;3.97;;;2.40;;
25331;SDS011;13284;52.748;13.452;2023-04-25T00:30:00;3.30;;;2.77;;
25331;SDS011;13284;52.748;13.452;2023-04-25T00:32:25;3.57;;;2.60;;
25331;SDS011;13284;52.748;13.452;2023-04-25T00:34:51;3.10;;;2.03;;
25331;SDS011;13284;52.748;13.452;2023-04-25T00:37:16;3.13;;;2.83;;
25331;SDS011;13284;52.748;13.452;2023-04-25T00:39:43;2.90;;;2.70;;
25331;SDS011;13284;52.748;13.452;2023-04-25T00:42:08;2.70;;;2.40;;
25331;SDS011;13284;52.748;13.452;2023-04-25T00:44:36;3.93;;;2.17;;
25331;SDS011;13284;52.748;13.452;2023-04-25T00:47:02;2.47;;;2.27;;
25331;SDS011;13284;52.748;13.452;2023-04-25T00:49:28;2.30;;;2.10;;
25331;SDS011;13284;52.748;13.452;2023-04-25T00:51:53;3.13;;;2.00;;
25331;SDS011;13284;52.748;13.452;2023-04-25T00:54:19;3.80;;;2.40;;
25331;SDS011;13284;52.748;13.452;2023-04-25T00:56:45;3.07;;;2.33;;
25331;SDS011;13284;52.748;13.452;2023-04-25T00:59:11;2.37;;;2.17;;
25331;SDS011;13284;52.748;13.452;2023-04-25T01:01:36;5.73;;;2.80;;
25331;SDS011;13284;52.748;13.452;2023-04-25T01:04:04;4.50;;;2.33;;
25331;SDS011;13284;52.748;13.452;2023-04-25T01:06:29;3.37;;;2.60;;
25331;SDS011;13284;52.748;13.452;2023-04-25T01:08:55;4.00;;;2.40;;
25331;SDS011;13284;52.748;13.452;2023-04-25T01:11:21;3.53;;;2.27;;
25331;SDS011;13284;52.748;13.452;2023-04-25T01:13:47;3.10;;;2.50;;
25331;SDS011;13284;52.748;13.452;2023-04-25T01:16:13;2.67;;;2.33;;
25331;SDS011;13284;52.748;13.452;2023-04-25T01:18:38;4.20;;;2.40;;
25331;SDS011;13284;52.748;13.452;2023-04-25T01:21:09;4.00;;;2.63;;
25331;SDS011;13284;52.748;13.452;2023-04-25T01:23:39;6.50;;;3.27;;
25331;SDS011;13284;52.748;13.452;2023-04-25T01:26:06;4.93;;;2.83;;
25331;SDS011;13284;52.748;13.452;2023-04-25T01:28:33;6.27;;;2.83;;
25331;SDS011;13284;52.748;13.452;2023-04-25T01:30:59;4.17;;;2.63;;
25331;SDS011;13284;52.748;13.452;2023-04-25T01:33:26;5.77;;;2.77;;
25331;SDS011;13284;52.748;13.452;2023-04-25T01:35:52;4.80;;;2.50;;
25331;SDS011;13284;52.748;13.452;2023-04-25T01:38:18;3.40;;;2.10;;
25331;SDS011;13284;52.748;13.452;2023-04-25T01:40:44;6.10;;;2.27;;
25331;SDS011;13284;52.748;13.452;2023-04-25T01:43:11;3.70;;;2.40;;
25331;SDS011;13284;52.748;13.452;2023-04-25T01:45:39;4.80;;;3.33;;
25331;SDS011;13284;52.748;13.452;2023-04-25T01:48:06;3.53;;;2.10;;
25331;SDS011;13284;52.748;13.452;2023-04-25T01:50:37;2.70;;;2.40;;
25331;SDS011;13284;52.748;13.452;2023-04-25T01:53:03;2.80;;;2.37;;
25331;SDS011;13284;52.748;13.452;2023-04-25T01:55:29;4.83;;;2.50;;
25331;SDS011;13284;52.748;13.452;2023-04-25T01:57:55;7.27;;;3.70;;
25331;SDS011;13284;52.748;13.452;2023-04-25T02:00:21;3.37;;;2.43;;
25331;SDS011;13284;52.748;13.452;2023-04-25T02:02:46;3.73;;;2.37;;
25331;SDS011;13284;52.748;13.452;2023-04-25T02:05:13;5.77;;;3.17;;
25331;SDS011;13284;52.748;13.452;2023-04-25T02:07:38;4.47;;;2.70;;
25331;SDS011;13284;52.748;13.452;2023-04-25T02:10:04;5.00;;;3.40;;
25331;SDS011;13284;52.748;13.452;2023-04-25T02:12:30;3.13;;;2.77;;
25331;SDS011;13284;52.748;13.452;2023-04-25T02:14:56;5.47;;;3.00;;
25331;SDS011;13284;52.748;13.452;2023-04-25T02:17:22;7.93;;;3.07;;
25331;SDS011;13284;52.748;13.452;2023-04-25T02:19:48;5.40;;;2.50;;
25331;SDS011;13284;52.748;13.452;2023-04-25T02:22:13;3.00;;;2.70;;
25331;SDS011;13284;52.748;13.452;2023-04-25T02:24:39;2.80;;;2.27;;
25331;SDS011;13284;52.748;13.452;2023-04-25T02:27:05;2.80;;;2.20;;
25331;SDS011;13284;52.748;13.452;2023-04-25T02:29:30;5.83;;;2.53;;
25331;SDS011;13284;52.748;13.452;2023-04-25T02:31:56;5.17;;;2.60;;
25331;SDS011;13284;52.748;13.452;2023-04-25T02:34:21;5.67;;;2.60;;
25331;SDS011;13284;52.748;13.452;2023-04-25T02:36:48;5.60;;;2.60;;
25331;SDS011;13284;52.748;13.452;2023-04-25T02:39:17;4.07;;;2.53;;
25331;SDS011;13284;52.748;13.452;2023-04-25T02:41:42;4.37;;;2.93;;
25331;SDS011;13284;52.748;13.452;2023-04-25T02:44:08;3.70;;;3.40;;
25331;SDS011;13284;52.748;13.452;2023-04-25T02:46:33;3.80;;;2.70;;
25331;SDS011;13284;52.748;13.452;2023-04-25T02:48:59;5.20;;;2.70;;
25331;SDS011;13284;52.748;13.452;2023-04-25T02:51:24;6.30;;;3.00;;
25331;SDS011;13284;52.748;13.452;2023-04-25T02:53:51;3.60;;;2.33;;
25331;SDS011;13284;52.748;13.452;2023-04-25T02:56:16;4.10;;;2.43;;
25331;SDS011;13284;52.748;13.452;2023-04-25T02:58:42;4.50;;;3.00;;
25331;SDS011;13284;52.748;13.452;2023-04-25T03:01:07;4.53;;;2.40;;
25331;SDS011;13284;52.748;13.452;2023-04-25T03:03:33;4.27;;;2.83;;
25331;SDS011;13284;52.748;13.452;2023-04-25T03:05:58;4.30;;;2.23;;
25331;SDS011;13284;52.748;13.452;2023-04-25T03:08:24;4.83;;;2.37;;
25331;SDS011;13284;52.748;13.452;2023-04-25T03:10:50;3.13;;;2.17;;
25331;SDS011;13284;52.748;13.452;2023-04-25T03:13:17;4.83;;;3.30;;
25331;SDS011;13284;52.748;13.452;2023-04-25T03:15:43;5.40;;;2.57;;
25331;SDS011;13284;52.748;13.452;2023-04-25T03:18:08;8.43;;;4.97;;
25331;SDS011;13284;52.748;13.452;2023-04-25T03:20:36;8.20;;;2.97;;
25331;SDS011;13284;52.748;13.452;2023-04-25T03:23:02;5.40;;;4.13;;
25331;SDS011;13284;52.748;13.452;2023-04-25T03:25:27;4.13;;;3.30;;
25331;SDS011;13284;52.748;13.452;2023-04-25T03:27:53;8.23;;;4.23;;
25331;SDS011;13284;52.748;13.452;2023-04-25T03:30:18;3.33;;;2.90;;
25331;SDS011;13284;52.748;13.452;2023-04-25T03:32:44;5.10;;;3.00;;
25331;SDS011;13284;52.748;13.452;2023-04-25T03:35:09;4.83;;;2.50;;
25331;SDS011;13284;52.748;13.452;2023-04-25T03:37:35;4.97;;;3.33;;
25331;SDS011;13284;52.748;13.452;2023-04-25T03:40:00;3.57;;;2.80;;
25331;SDS011;13284;52.748;13.452;2023-04-25T03:42:26;5.30;;;3.77;;
25331;SDS011;13284;52.748;13.452;2023-04-25T03:44:51;2.80;;;2.50;;
25331;SDS011;13284;52.748;13.452;2023-04-25T03:47:17;4.40;;;3.30;;
25331;SDS011;13284;52.748;13.452;2023-04-25T03:49:43;7.53;;;3.10;;
25331;SDS011;13284;52.748;13.452;2023-04-25T03:52:09;4.57;;;2.90;;
25331;SDS011;13284;52.748;13.452;2023-04-25T03:54:34;6.93;;;4.00;;
25331;SDS011;13284;52.748;13.452;2023-04-25T03:57:00;4.97;;;3.43;;
25331;SDS011;13284;52.748;13.452;2023-04-25T03:59:25;9.00;;;3.60;;
25331;SDS011;13284;52.748;13.452;2023-04-25T04:01:51;9.87;;;3.40;;
25331;SDS011;13284;52.748;13.452;2023-04-25T04:04:17;8.90;;;3.50;;
25331;SDS011;13284;52.748;13.452;2023-04-25T04:06:43;8.10;;;4.30;;
25331;SDS011;13284;52.748;13.452;2023-04-25T04:09:08;4.53;;;3.07;;
25331;SDS011;13284;52.748;13.452;2023-04-25T04:11:36;8.07;;;3.63;;
25331;SDS011;13284;52.748;13.452;2023-04-25T04:14:03;4.43;;;3.50;;
25331;SDS011;13284;52.748;13.452;2023-04-25T04:16:30;5.00;;;3.53;;
25331;SDS011;13284;52.748;13.452;2023-04-25T04:18:56;5.33;;;3.20;;
25331;SDS011;13284;52.748;13.452;2023-04-25T04:21:21;7.30;;;3.10;;
25331;SDS011;13284;52.748;13.452;2023-04-25T04:23:47;4.50;;;3.67;;
25331;SDS011;13284;52.748;13.452;2023-04-25T04:26:18;4.40;;;3.10;;
25331;SDS011;13284;52.748;13.452;2023-04-25T04:28:48;5.13;;;3.50;;
25331;SDS011;13284;52.748;13.452;2023-04-25T04:31:15;7.13;;;3.47;;
25331;SDS011;13284;52.748;13.452;2023-04-25T04:33:43;4.23;;;3.20;;
25331;SDS011;13284;52.748;13.452;2023-04-25T04:36:09;5.60;;;2.50;;
25331;SDS011;13284;52.748;13.452;2023-04-25T04:38:35;5.57;;;3.57;;
25331;SDS011;13284;52.748;13.452;2023-04-25T04:41:01;4.57;;;2.97;;
25331;SDS011;13284;52.748;13.452;2023-04-25T04:43:27;4.17;;;3.20;;
25331;SDS011;13284;52.748;13.452;2023-04-25T04:45:53;4.07;;;3.00;;
25331;SDS011;13284;52.748;13.452;2023-04-25T04:48:21;3.20;;;2.90;;
25331;SDS011;13284;52.748;13.452;2023-04-25T04:50:46;6.70;;;3.40;;
25331;SDS011;13284;52.748;13.452;2023-04-25T04:53:12;5.40;;;3.40;;
25331;SDS011;13284;52.748;13.452;2023-04-25T04:55:38;5.10;;;3.37;;
25331;SDS011;13284;52.748;13.452;2023-04-25T04:58:03;3.97;;;3.57;;
25331;SDS011;13284;52.748;13.452;2023-04-25T05:00:29;5.67;;;3.50;;
25331;SDS011;13284;52.748;13.452;2023-04-25T05:02:57;8.90;;;3.80;;
25331;SDS011;13284;52.748;13.452;2023-04-25T05:05:24;5.90;;;3.33;;
25331;SDS011;13284;52.748;13.452;2023-04-25T05:07:50;5.53;;;3.57;;
25331;SDS011;13284;52.748;13.452;2023-04-25T05:10:16;7.70;;;4.27;;
25331;SDS011;13284;52.748;13.452;2023-04-25T05:12:43;7.50;;;4.00;;
25331;SDS011;13284;52.748;13.452;2023-04-25T05:15:09;5.17;;;2.77;;
25331;SDS011;13284;52.748;13.452;2023-04-25T05:17:35;6.73;;;3.13;;
25331;SDS011;13284;52.748;13.452;2023-04-25T05:20:00;4.20;;;3.63;;
25331;SDS011;13284;52.748;13.452;2023-04-25T05:22:26;4.83;;;3.23;;
25331;SDS011;13284;52.748;13.452;2023-04-25T05:24:52;4.03;;;2.57;;
25331;SDS011;13284;52.748;13.452;2023-04-25T05:27:17;5.17;;;3.20;;
25331;SDS011;13284;52.748;13.452;2023-04-25T05:29:44;3.77;;;3.23;;
25331;SDS011;13284;52.748;13.452;2023-04-25T05:32:10;4.73;;;4.37;;
25331;SDS011;13284;52.748;13.452;2023-04-25T05:34:36;4.43;;;2.50;;
25331;SDS011;13284;52.748;13.452;2023-04-25T05:37:01;3.90;;;3.00;;
25331;SDS011;13284;52.748;13.452;2023-04-25T05:39:27;4.83;;;3.10;;
25331;SDS011;13284;52.748;13.452;2023-04-25T05:41:53;2.80;;;2.47;;
25331;SDS011;13284;52.748;13.452;2023-04-25T05:44:18;5.10;;;3.23;;
25331;SDS011;13284;52.748;13.452;2023-04-25T05:46:44;5.20;;;4.10;;
25331;SDS011;13284;52.748;13.452;2023-04-25T05:49:09;8.53;;;3.70;;
25331;SDS011;13284;52.748;13.452;2023-04-25T05:51:35;7.90;;;3.00;;
25331;SDS011;13284;52.748;13.452;2023-04-25T05:54:01;12.20;;;3.40;;
25331;SDS011;13284;52.748;13.452;2023-04-25T05:56:26;3.60;;;3.17;;
25331;SDS011;13284;52.748;13.452;2023-04-25T05:58:52;6.87;;;3.33;;
25331;SDS011;13284;52.748;13.452;2023-04-25T06:01:17;7.17;;;3.23;;
25331;SDS011;13284;52.748;13.452;2023-04-25T06:03:43;5.90;;;3.30;;
25331;SDS011;13284;52.748;13.452;2023-04-25T06:06:09;4.87;;;3.40;;
25331;SDS011;13284;52.748;13.452;2023-04-25T06:08:36;5.40;;;4.13;;
25331;SDS011;13284;52.748;13.452;2023-04-25T06:11:02;8.37;;;3.70;;
25331;SDS011;13284;52.748;13.452;2023-04-25T06:13:28;4.30;;;3.00;;
25331;SDS011;13284;52.748;13.452;2023-04-25T06:15:53;5.97;;;3.63;;
25331;SDS011;13284;52.748;13.452;2023-04-25T06:18:19;5.97;;;3.70;;
25331;SDS011;13284;52.748;13.452;2023-04-25T06:20:44;8.60;;;4.10;;
25331;SDS011;13284;52.748;13.452;2023-04-25T06:23:10;7.90;;;3.30;;
25331;SDS011;13284;52.748;13.452;2023-04-25T06:25:35;5.30;;;3.70;;
25331;SDS011;13284;52.748;13.452;2023-04-25T06:28:01;7.60;;;4.30;;
25331;SDS011;13284;52.748;13.452;2023-04-25T06:30:26;8.17;;;3.53;;
25331;SDS011;13284;52.748;13.452;2023-04-25T06:32:52;16.40;;;9.80;;
25331;SDS011;13284;52.748;13.452;2023-04-25T06:35:18;6.03;;;3.90;;
25331;SDS011;13284;52.748;13.452;2023-04-25T06:37:44;5.30;;;3.23;;
25331;SDS011;13284;52.748;13.452;2023-04-25T06:40:09;4.60;;;4.20;;
25331;SDS011;13284;52.748;13.452;2023-04-25T06:42:36;6.40;;;3.03;;
25331;SDS011;13284;52.748;13.452;2023-04-25T06:45:01;8.10;;;4.10;;
25331;SDS011;13284;52.748;13.452;2023-04-25T06:47:27;8.00;;;4.30;;
25331;SDS011;13284;52.748;13.452;2023-04-25T06:49:53;5.80;;;3.27;;
25331;SDS011;13284;52.748;13.452;2023-04-25T06:52:18;4.13;;;3.20;;
25331;SDS011;13284;52.748;13.452;2023-04-25T06:54:44;8.63;;;3.30;;
25331;SDS011;13284;52.748;13.452;2023-04-25T06:57:10;5.17;;;3.50;;
25331;SDS011;13284;52.748;13.452;2023-04-25T06:59:35;3.67;;;2.90;;
25331;SDS011;13284;52.748;13.452;2023-04-25T07:02:01;7.60;;;5.70;;
25331;SDS011;13284;52.748;13.452;2023-04-25T07:04:27;4.53;;;2.97;;
25331;SDS011;13284;52.748;13.452;2023-04-25T07:06:52;4.03;;;3.27;;
25331;SDS011;13284;52.748;13.452;2023-04-25T07:09:18;5.10;;;3.03;;
25331;SDS011;13284;52.748;13.452;2023-04-25T07:11:44;6.97;;;4.03;;
25331;SDS011;13284;52.748;13.452;2023-04-25T07:14:09;5.70;;;3.50;;
25331;SDS011;13284;52.748;13.452;2023-04-25T07:16:35;7.30;;;3.90;;
25331;SDS011;13284;52.748;13.452;2023-04-25T07:19:00;5.83;;;3.50;;
25331;SDS011;13284;52.748;13.452;2023-04-25T07:21:26;5.00;;;3.33;;
25331;SDS011;13284;52.748;13.452;2023-04-25T07:23:51;11.60;;;8.53;;
25331;SDS011;13284;52.748;13.452;2023-04-25T07:26:17;6.60;;;3.93;;
25331;SDS011;13284;52.748;13.452;2023-04-25T07:28:42;6.83;;;4.10;;
25331;SDS011;13284;52.748;13.452;2023-04-25T07:31:08;4.83;;;3.03;;
25331;SDS011;13284;52.748;13.452;2023-04-25T07:33:34;7.97;;;3.23;;
25331;SDS011;13284;52.748;13.452;2023-04-25T07:35:59;4.00;;;3.30;;
25331;SDS011;13284;52.748;13.452;2023-04-25T07:38:25;10.00;;;3.53;;
25331;SDS011;13284;52.748;13.452;2023-04-25T07:40:51;4.87;;;3.13;;
25331;SDS011;13284;52.748;13.452;2023-04-25T07:43:16;5.10;;;3.03;;
25331;SDS011;13284;52.748;13.452;2023-04-25T07:45:45;7.33;;;3.00;;
25331;SDS011;13284;52.748;13.452;2023-04-25T07:48:11;7.70;;;3.90;;
25331;SDS011;13284;52.748;13.452;2023-04-25T07:50:41;8.17;;;4.00;;
25331;SDS011;13284;52.748;13.452;2023-04-25T07:53:06;6.80;;;3.30;;
25331;SDS011;13284;52.748;13.452;2023-04-25T07:55:32;4.90;;;3.47;;
25331;SDS011;13284;52.748;13.452;2023-04-25T07:57:57;11.23;;;3.50;;
25331;SDS011;13284;52.748;13.452;2023-04-25T08:00:23;4.77;;;3.47;;
25331;SDS011;13284;52.748;13.452;2023-04-25T08:02:48;7.03;;;4.67;;
25331;SDS011;13284;52.748;13.452;2023-04-25T08:05:15;7.53;;;4.03;;
25331;SDS011;13284;52.748;13.452;2023-04-25T08:07:41;19.23;;;4.43;;
25331;SDS011;13284;52.748;13.452;2023-04-25T08:10:07;13.13;;;3.97;;
25331;SDS011;13284;52.748;13.452;2023-04-25T08:12:33;9.87;;;3.63;;
25331;SDS011;13284;52.748;13.452;2023-04-25T08:14:58;10.80;;;3.70;;
25331;SDS011;13284;52.748;13.452;2023-04-25T08:17:24;7.17;;;3.40;;
25331;SDS011;13284;52.748;13.452;2023-04-25T08:19:49;9.70;;;4.37;;
25331;SDS011;13284;52.748;13.452;2023-04-25T08:22:15;8.30;;;3.20;;
25331;SDS011;13284;52.748;13.452;2023-04-25T08:24:41;13.80;;;4.47;;
25331;SDS011;13284;52.748;13.452;2023-04-25T08:27:06;9.73;;;4.40;;
25331;SDS011;13284;52.748;13.452;2023-04-25T08:29:32;7.77;;;4.93;;
25331;SDS011;13284;52.748;13.452;2023-04-25T08:31:58;10.17;;;4.10;;
25331;SDS011;13284;52.748;13.452;2023-04-25T08:34:24;11.57;;;4.83;;
25331;SDS011;13284;52.748;13.452;2023-04-25T08:36:50;10.03;;;3.40;;
25331;SDS011;13284;52.748;13.452;2023-04-25T08:39:16;4.90;;;3.50;;
25331;SDS011;13284;52.748;13.452;2023-04-25T08:41:42;5.50;;;3.13;;
25331;SDS011;13284;52.748;13.452;2023-04-25T08:44:09;7.73;;;3.93;;
25331;SDS011;13284;52.748;13.452;2023-04-25T08:46:37;11.07;;;4.50;;
25331;SDS011;13284;52.748;13.452;2023-04-25T08:49:04;9.33;;;3.73;;
25331;SDS011;13284;52.748;13.452;2023-04-25T08:51:31;15.77;;;5.03;;
25331;SDS011;13284;52.748;13.452;2023-04-25T08:53:59;8.97;;;3.93;;
25331;SDS011;13284;52.748;13.452;2023-04-25T08:56:34;10.80;;;3.40;;
25331;SDS011;13284;52.748;13.452;2023-04-25T08:59:01;7.90;;;3.40;;
25331;SDS011;13284;52.748;13.452;2023-04-25T09:01:27;8.97;;;4.03;;
25331;SDS011;13284;52.748;13.452;2023-04-25T09:03:53;8.20;;;2.53;;
25331;SDS011;13284;52.748;13.452;2023-04-25T09:06:19;8.37;;;3.33;;
25331;SDS011;13284;52.748;13.452;2023-04-25T09:08:44;5.97;;;3.13;;
25331;SDS011;13284;52.748;13.452;2023-04-25T09:11:10;9.87;;;3.10;;
25331;SDS011;13284;52.748;13.452;2023-04-25T09:13:40;5.17;;;2.77;;
25331;SDS011;13284;52.748;13.452;2023-04-25T09:16:05;7.30;;;3.00;;
25331;SDS011;13284;52.748;13.452;2023-04-25T09:18:32;5.47;;;3.33;;
25331;SDS011;13284;52.748;13.452;2023-04-25T09:21:06;9.73;;;3.63;;
25331;SDS011;13284;52.748;13.452;2023-04-25T09:23:40;5.40;;;3.30;;
25331;SDS011;13284;52.748;13.452;2023-04-25T09:26:09;9.70;;;3.80;;
25331;SDS011;13284;52.748;13.452;2023-04-25T09:28:35;7.80;;;2.80;;
25331;SDS011;13284;52.748;13.452;2023-04-25T09:31:01;4.10;;;3.00;;
25331;SDS011;13284;52.748;13.452;2023-04-25T09:33:30;9.20;;;2.30;;
25331;SDS011;13284;52.748;13.452;2023-04-25T09:36:01;4.80;;;2.57;;
25331;SDS011;13284;52.748;13.452;2023-04-25T09:38:41;3.40;;;1.80;;
25331;SDS011;13284;52.748;13.452;2023-04-25T09:41:08;3.87;;;1.80;;
25331;SDS011;13284;52.748;13.452;2023-04-25T09:43:35;5.37;;;2.20;;
25331;SDS011;13284;52.748;13.452;2023-04-25T09:46:01;6.90;;;3.17;;
25331;SDS011;13284;52.748;13.452;2023-04-25T09:48:27;3.00;;;1.50;;
25331;SDS011;13284;52.748;13.452;2023-04-25T09:53:28;6.70;;;2.40;;
25331;SDS011;13284;52.748;13.452;2023-04-25T09:55:55;2.63;;;1.67;;
25331;SDS011;13284;52.748;13.452;2023-04-25T09:58:21;6.20;;;2.03;;
25331;SDS011;13284;52.748;13.452;2023-04-25T10:00:49;2.80;;;1.93;;
25331;SDS011;13284;52.748;13.452;2023-04-25T10:03:16;8.47;;;2.10;;
25331;SDS011;13284;52.748;13.452;2023-04-25T10:05:43;3.97;;;2.47;;
25331;SDS011;13284;52.748;13.452;2023-04-25T10:08:10;4.47;;;2.93;;
25331;SDS011;13284;52.748;13.452;2023-04-25T10:10:37;4.30;;;2.50;;
25331;SDS011;13284;52.748;13.452;2023-04-25T10:13:05;6.00;;;1.80;;
25331;SDS011;13284;52.748;13.452;2023-04-25T10:15:32;2.23;;;1.60;;
25331;SDS011;13284;52.748;13.452;2023-04-25T10:18:00;8.13;;;2.70;;
25331;SDS011;13284;52.748;13.452;2023-04-25T10:20:27;3.67;;;2.07;;
25331;SDS011;13284;52.748;13.452;2023-04-25T10:22:54;6.10;;;2.53;;
25331;SDS011;13284;52.748;13.452;2023-04-25T10:25:23;9.87;;;2.07;;
25331;SDS011;13284;52.748;13.452;2023-04-25T10:27:52;6.20;;;2.40;;
25331;SDS011;13284;52.748;13.452;2023-04-25T10:30:18;6.23;;;2.37;;
25331;SDS011;13284;52.748;13.452;2023-04-25T10:32:44;5.67;;;1.87;;
25331;SDS011;13284;52.748;13.452;2023-04-25T10:35:15;5.00;;;1.40;;
25331;SDS011;13284;52.748;13.452;2023-04-25T10:40:29;6.20;;;1.70;;
25331;SDS011;13284;52.748;13.452;2023-04-25T10:42:55;5.33;;;2.13;;
25331;SDS011;13284;52.748;13.452;2023-04-25T10:45:53;6.20;;;2.47;;
25331;SDS011;13284;52.748;13.452;2023-04-25T10:48:25;7.17;;;1.90;;
25331;SDS011;13284;52.748;13.452;2023-04-25T10:51:01;5.70;;;1.97;;
25331;SDS011;13284;52.748;13.452;2023-04-25T10:53:33;5.17;;;2.13;;
25331;SDS011;13284;52.748;13.452;2023-04-25T10:55:59;2.70;;;1.60;;
25331;SDS011;13284;52.748;13.452;2023-04-25T10:58:25;3.63;;;1.60;;
25331;SDS011;13284;52.748;13.452;2023-04-25T11:00:54;6.30;;;2.07;;
25331;SDS011;13284;52.748;13.452;2023-04-25T11:03:21;3.03;;;1.63;;
25331;SDS011;13284;52.748;13.452;2023-04-25T11:05:46;3.03;;;1.80;;
25331;SDS011;13284;52.748;13.452;2023-04-25T11:08:14;6.30;;;1.70;;
25331;SDS011;13284;52.748;13.452;2023-04-25T11:10:53;4.67;;;1.70;;
25331;SDS011;13284;52.748;13.452;2023-04-25T11:13:22;4.90;;;1.40;;
25331;SDS011;13284;52.748;13.452;2023-04-25T11:15:54;4.53;;;1.77;;
25331;SDS011;13284;52.748;13.452;2023-04-25T11:18:20;4.00;;;1.50;;
25331;SDS011;13284;52.748;13.452;2023-04-25T11:20:46;3.33;;;1.47;;
25331;SDS011;13284;52.748;13.452;2023-04-25T11:23:13;6.60;;;1.80;;
25331;SDS011;13284;52.748;13.452;2023-04-25T11:25:40;1.90;;;1.50;;
25331;SDS011;13284;52.748;13.452;2023-04-25T11:28:05;2.23;;;1.50;;
25331;SDS011;13284;52.748;13.452;2023-04-25T11:30:31;1.90;;;1.20;;
25331;SDS011;13284;52.748;13.452;2023-04-25T11:32:57;3.73;;;1.50;;
25331;SDS011;13284;52.748;13.452;2023-04-25T11:35:22;4.07;;;1.40;;
25331;SDS011;13284;52.748;13.452;2023-04-25T11:37:50;3.00;;;1.80;;
25331;SDS011;13284;52.748;13.452;2023-04-25T11:40:16;5.93;;;1.57;;
25331;SDS011;13284;52.748;13.452;2023-04-25T11:42:45;5.37;;;1.90;;
25331;SDS011;13284;52.748;13.452;2023-04-25T11:45:11;6.00;;;1.87;;
25331;SDS011;13284;52.748;13.452;2023-04-25T11:47:38;2.90;;;1.50;;
25331;SDS011;13284;52.748;13.452;2023-04-25T11:50:05;6.00;;;1.60;;
25331;SDS011;13284;52.748;13.452;2023-04-25T11:52:36;3.17;;;1.60;;
25331;SDS011;13284;52.748;13.452;2023-04-25T11:55:06;4.30;;;2.87;;
25331;SDS011;13284;52.748;13.452;2023-04-25T11:57:33;2.93;;;1.40;;
25331;SDS011;13284;52.748;13.452;2023-04-25T12:00:05;3.00;;;1.83;;
25331;SDS011;13284;52.748;13.452;2023-04-25T12:02:36;4.23;;;1.80;;
25331;SDS011;13284;52.748;13.452;2023-04-25T12:05:02;3.40;;;1.80;;
25331;SDS011;13284;52.748;13.452;2023-04-25T12:07:34;4.27;;;1.60;;
25331;SDS011;13284;52.748;13.452;2023-04-25T12:10:05;3.67;;;1.50;;
25331;SDS011;13284;52.748;13.452;2023-04-25T12:12:33;5.30;;;1.73;;
25331;SDS011;13284;52.748;13.452;2023-04-25T12:15:09;9.00;;;1.90;;
25331;SDS011;13284;52.748;13.452;2023-04-25T12:17:40;6.77;;;1.37;;
25331;SDS011;13284;52.748;13.452;2023-04-25T12:20:09;5.20;;;1.43;;
25331;SDS011;13284;52.748;13.452;2023-04-25T12:22:43;3.43;;;2.23;;
25331;SDS011;13284;52.748;13.452;2023-04-25T12:25:58;4.37;;;1.70;;
25331;SDS011;13284;52.748;13.452;2023-04-25T12:28:29;3.43;;;2.00;;
25331;SDS011;13284;52.748;13.452;2023-04-25T12:31:00;4.63;;;1.80;;
25331;SDS011;13284;52.748;13.452;2023-04-25T12:33:33;3.63;;;1.83;;
25331;SDS011;13284;52.748;13.452;2023-04-25T12:36:00;5.60;;;1.87;;
25331;SDS011;13284;52.748;13.452;2023-04-25T12:38:41;5.60;;;2.17;;
25331;SDS011;13284;52.748;13.452;2023-04-25T12:41:07;5.77;;;1.80;;
25331;SDS011;13284;52.748;13.452;2023-04-25T12:43:33;5.00;;;2.50;;
25331;SDS011;13284;52.748;13.452;2023-04-25T12:45:59;10.40;;;2.00;;
25331;SDS011;13284;52.748;13.452;2023-04-25T12:48:25;7.83;;;1.80;;
25331;SDS011;13284;52.748;13.452;2023-04-25T12:50:51;1.90;;;1.57;;
25331;SDS011;13284;52.748;13.452;2023-04-25T12:53:17;4.37;;;1.73;;
25331;SDS011;13284;52.748;13.452;2023-04-25T12:55:44;2.57;;;2.20;;
25331;SDS011;13284;52.748;13.452;2023-04-25T12:58:13;3.87;;;1.87;;
25331;SDS011;13284;52.748;13.452;2023-04-25T13:00:39;5.10;;;1.73;;
25331;SDS011;13284;52.748;13.452;2023-04-25T13:03:05;3.70;;;1.47;;
25331;SDS011;13284;52.748;13.452;2023-04-25T13:05:31;3.10;;;1.63;;
25331;SDS011;13284;52.748;13.452;2023-04-25T13:07:56;6.50;;;2.00;;
25331;SDS011;13284;52.748;13.452;2023-04-25T13:10:22;4.80;;;2.00;;
25331;SDS011;13284;52.748;13.452;2023-04-25T13:12:48;2.83;;;1.80;;
25331;SDS011;13284;52.748;13.452;2023-04-25T13:15:13;5.80;;;1.77;;
25331;SDS011;13284;52.748;13.452;2023-04-25T13:17:40;5.93;;;1.83;;
25331;SDS011;13284;52.748;13.452;2023-04-25T13:20:06;3.10;;;1.80;;
25331;SDS011;13284;52.748;13.452;2023-04-25T13:22:34;5.13;;;2.00;;
25331;SDS011;13284;52.748;13.452;2023-04-25T13:25:02;6.13;;;2.87;;
25331;SDS011;13284;52.748;13.452;2023-04-25T13:27:28;5.53;;;2.07;;
25331;SDS011;13284;52.748;13.452;2023-04-25T13:29:54;7.03;;;2.43;;
25331;SDS011;13284;52.748;13.452;2023-04-25T13:32:19;3.80;;;2.20;;
25331;SDS011;13284;52.748;13.452;2023-04-25T13:34:45;5.37;;;1.73;;
25331;SDS011;13284;52.748;13.452;2023-04-25T13:37:10;5.10;;;1.50;;
25331;SDS011;13284;52.748;13.452;2023-04-25T13:39:36;2.10;;;1.53;;
25331;SDS011;13284;52.748;13.452;2023-04-25T13:42:01;7.70;;;1.70;;
25331;SDS011;13284;52.748;13.452;2023-04-25T13:44:28;5.23;;;1.83;;
25331;SDS011;13284;52.748;13.452;2023-04-25T13:46:53;5.17;;;1.67;;
25331;SDS011;13284;52.748;13.452;2023-04-25T13:49:19;3.77;;;1.67;;
25331;SDS011;13284;52.748;13.452;2023-04-25T13:51:44;7.80;;;1.63;;
25331;SDS011;13284;52.748;13.452;2023-04-25T13:54:10;5.07;;;2.37;;
25331;SDS011;13284;52.748;13.452;2023-04-25T13:56:35;4.90;;;2.20;;
25331;SDS011;13284;52.748;13.452;2023-04-25T13:59:01;5.90;;;1.97;;
25331;SDS011;13284;52.748;13.452;2023-04-25T14:01:27;3.90;;;2.20;;
25331;SDS011;13284;52.748;13.452;2023-04-25T14:03:53;4.07;;;1.50;;
25331;SDS011;13284;52.748;13.452;2023-04-25T14:06:18;7.27;;;3.43;;
25331;SDS011;13284;52.748;13.452;2023-04-25T14:08:48;5.10;;;2.30;;
25331;SDS011;13284;52.748;13.452;2023-04-25T14:11:14;3.53;;;2.40;;
25331;SDS011;13284;52.748;13.452;2023-04-25T14:13:40;7.83;;;2.27;;
25331;SDS011;13284;52.748;13.452;2023-04-25T14:16:05;3.03;;;1.30;;
25331;SDS011;13284;52.748;13.452;2023-04-25T14:18:31;2.03;;;1.83;;
25331;SDS011;13284;52.748;13.452;2023-04-25T14:20:56;2.90;;;1.40;;
25331;SDS011;13284;52.748;13.452;2023-04-25T14:23:22;2.03;;;1.50;;
25331;SDS011;13284;52.748;13.452;2023-04-25T14:25:47;7.03;;;1.30;;
25331;SDS011;13284;52.748;13.452;2023-04-25T14:28:13;4.23;;;1.40;;
25331;SDS011;13284;52.748;13.452;2023-04-25T14:30:38;4.20;;;1.63;;
25331;SDS011;13284;52.748;13.452;2023-04-25T14:33:04;4.00;;;1.47;;
25331;SDS011;13284;52.748;13.452;2023-04-25T14:35:30;4.67;;;1.87;;